Portada
METAR-TAF:

METAR-TAF

Aeroports :

Funchal, Madeira, Portugal

latitud: 32-41-52N, longitud: 016-46-28W, altitud: 59 m

Observació

L'informe es va fer fa 17 minuts, a les 19:30 UTC
Vent 11 kt del Nord, variant entre Nord-Oest i Nord/Nord-Est
Temperatura 17°C
Humitat 59%
Pressió 1016 hPa
Visibilitat 10 km o més
Escasses núvols a una alçada de 1600 ft

METAR: LPMA 221930Z 35011KT 320V020 9999 FEW016 17/09 Q1016

Hora: 20:47 (19:47 UTC)

Pronòstic

L'informe es va fer fa 2 hores i 47 minuts, a les 17:00 UTC
Pronòstic vàlid del 22 a les 18 UTC al 23 a les 18 UTC
Vent 12 kt del Nord
Visibilitat 10 km o més
Núvols disperses a una alçada de 1500 ft
Núvols disperses a una alçada de 3000 ft
Temporalment
l' 22 a les 18 UTC al 23 a les 03 UTC
Vent 5 kt amb direcció variable
Evolucionant progressivament
l' 23 a les 03 UTC al 23 a les 06 UTC
Vent 5 kt amb direcció variable

TAF: LPMA 221700Z 2218/2318 35012KT 9999 SCT015 SCT030 TEMPO 2218/2303 VRB05KT BECMG 2303/2306 VRB05KT

Observacions i pronòstics meteorològics de més de 4000 aeroports (METAR i TAF).

Les estacions disponibles són els punts grocs i vermells al mapa.

Posi el ratolí al punt desitjat per veure el nom de l'estació.

Feu clic per veure les observacions i els pronòstics meteorològics.

Per canviar el mapa: feu clic els botons verds amb una creu de color negre per apropar; al botó verd amb un guió per allunyar la imatge; o en les fletxes verdes per a mapes adjacents.


METAR-TAF: